Time;durP1;ratioP1;P1;durP2;ratioP2;P2;SDS_P1;SDS_P2;PMS_P1;PMS_P2;Temp;Humidity;BMP_temperature;BMP_pressure;BME280_temperature;BME280_humidity;BME280_pressure;Samples;Min_cycle;Max_cycle;Signal;HPM_P1;HPM_P2
2022/04/15 00:01:22;;;;;;;12.80;6.75;;;7.90;99.90;;;;;;4971806;28;20519;-59
2022/04/15 00:03:50;;;;;;;11.30;6.85;;;7.90;99.90;;;;;;4990138;28;20050;-59
2022/04/15 00:06:21;;;;;;;11.27;6.53;;;7.90;99.90;;;;;;4970422;28;20042;-60
2022/04/15 00:08:47;;;;;;;13.52;7.03;;;7.90;99.90;;;;;;4989565;28;20038;-63
2022/04/15 00:11:14;;;;;;;10.40;6.25;;;7.90;99.90;;;;;;4985716;28;20065;-60
2022/04/15 00:13:41;;;;;;;11.65;6.57;;;7.90;99.90;;;;;;4986940;28;20042;-61
2022/04/15 00:16:08;;;;;;;11.90;6.55;;;7.90;99.90;;;;;;4986249;28;20096;-63
2022/04/15 00:18:36;;;;;;;9.40;6.07;;;8.00;99.90;;;;;;4988253;28;20133;-62
2022/04/15 00:21:03;;;;;;;14.27;7.15;;;8.00;99.90;;;;;;4987431;28;20096;-59
2022/04/15 00:23:30;;;;;;;14.00;6.90;;;8.00;99.90;;;;;;4987266;28;20085;-60
2022/04/15 00:25:56;;;;;;;11.10;7.18;;;8.00;99.90;;;;;;4989942;28;20335;-61
2022/04/15 00:28:23;;;;;;;14.30;6.97;;;8.00;99.90;;;;;;4987065;28;20125;-62
2022/04/15 00:30:49;;;;;;;15.32;7.30;;;8.10;99.90;;;;;;4985098;28;20116;-59
2022/04/15 00:33:15;;;;;;;12.60;6.40;;;8.10;99.90;;;;;;4989969;28;20061;-60
2022/04/15 00:35:41;;;;;;;13.38;7.15;;;8.10;99.90;;;;;;4977053;28;20053;-59
2022/04/15 00:38:07;;;;;;;18.30;6.82;;;8.10;99.90;;;;;;4989833;28;20575;-59
2022/04/15 00:40:33;;;;;;;15.68;7.22;;;8.10;99.90;;;;;;4988116;28;20092;-63
2022/04/15 00:42:59;;;;;;;13.88;5.50;;;8.20;99.90;;;;;;4984671;28;20054;-58
2022/04/15 00:45:25;;;;;;;10.93;5.68;;;8.20;99.90;;;;;;4987089;28;20050;-63
2022/04/15 00:47:56;;;;;;;10.93;4.78;;;8.20;99.90;;;;;;4987923;28;20420;-63
2022/04/15 00:50:24;;;;;;;12.15;5.22;;;8.20;99.90;;;;;;4985917;28;20062;-62
2022/04/15 00:52:52;;;;;;;12.20;5.47;;;8.30;99.90;;;;;;4987308;28;20057;-61
2022/04/15 00:55:21;;;;;;;12.48;5.28;;;8.30;99.90;;;;;;4968450;28;20776;-60
2022/04/15 00:57:56;;;;;;;10.57;4.70;;;8.30;99.90;;;;;;4986687;28;20050;-61
2022/04/15 01:00:24;;;;;;;6.93;5.00;;;8.30;99.90;;;;;;4985256;28;20046;-62
2022/04/15 01:02:50;;;;;;;10.32;4.65;;;8.30;99.90;;;;;;4985436;28;20089;-60
2022/04/15 01:05:16;;;;;;;13.80;5.07;;;8.40;99.90;;;;;;4987585;28;20077;-62
2022/04/15 01:07:48;;;;;;;9.98;5.13;;;8.40;99.90;;;;;;4986289;28;20050;-62
2022/04/15 01:10:15;;;;;;;8.75;5.20;;;8.40;99.90;;;;;;4984648;28;20046;-60
2022/04/15 01:12:45;;;;;;;11.18;5.00;;;8.40;99.90;;;;;;4955066;28;20602;-62
2022/04/15 01:15:15;;;;;;;11.95;5.50;;;8.40;99.90;;;;;;4973430;28;20061;-62
2022/04/15 01:17:41;;;;;;;13.48;5.13;;;8.40;99.90;;;;;;4986380;28;20141;-62
2022/04/15 01:20:10;;;;;;;9.82;5.18;;;8.40;99.90;;;;;;4986525;28;20547;-62
2022/04/15 01:22:41;;;;;;;11.98;5.53;;;8.40;99.90;;;;;;4983900;28;20053;-63
2022/04/15 01:25:09;;;;;;;11.77;5.13;;;8.40;99.90;;;;;;4976339;28;20379;-60
2022/04/15 01:27:38;;;;;;;13.30;4.97;;;8.40;99.90;;;;;;4974071;28;20108;-62
2022/04/15 01:30:07;;;;;;;13.32;5.10;;;8.40;99.90;;;;;;4990710;28;20093;-60
2022/04/15 01:32:32;;;;;;;9.55;4.80;;;8.40;99.90;;;;;;4987714;28;20112;-62
2022/04/15 01:34:58;;;;;;;8.60;4.55;;;8.40;99.90;;;;;;4974874;28;20057;-62
2022/04/15 01:37:24;;;;;;;11.57;4.53;;;8.40;99.90;;;;;;4987194;28;20515;-62
2022/04/15 01:39:50;;;;;;;9.93;4.70;;;8.40;99.90;;;;;;4991234;28;20565;-59
2022/04/15 01:42:17;;;;;;;13.70;4.93;;;8.40;99.90;;;;;;4991926;28;20053;-62
2022/04/15 01:44:44;;;;;;;14.65;5.00;;;8.50;99.90;;;;;;4990248;28;20506;-60
2022/04/15 01:47:13;;;;;;;16.85;5.20;;;8.50;99.90;;;;;;4988733;28;20049;-60
2022/04/15 01:49:39;;;;;;;15.75;6.07;;;8.50;99.90;;;;;;4991521;28;20133;-62
2022/04/15 01:52:06;;;;;;;14.85;4.90;;;8.50;99.90;;;;;;4992047;28;20099;-62
2022/04/15 01:54:32;;;;;;;16.65;6.10;;;8.50;99.90;;;;;;4993480;28;20092;-60
2022/04/15 01:56:58;;;;;;;14.07;5.95;;;8.50;99.90;;;;;;4991007;28;20121;-62
2022/04/15 01:59:24;;;;;;;17.92;6.88;;;8.50;99.90;;;;;;4973440;28;20050;-60
2022/04/15 02:01:54;;;;;;;16.65;6.93;;;8.50;99.90;;;;;;4988524;28;20090;-63
2022/04/15 02:04:25;;;;;;;16.27;8.35;;;8.50;99.90;;;;;;4990682;28;20496;-63
2022/04/15 02:06:51;;;;;;;15.85;7.10;;;8.50;99.90;;;;;;4989808;28;20038;-59
2022/04/15 02:09:17;;;;;;;21.25;7.30;;;8.50;99.90;;;;;;4994010;28;20408;-63
2022/04/15 02:11:43;;;;;;;17.90;7.70;;;8.50;99.90;;;;;;4967832;28;20121;-60
2022/04/15 02:14:09;;;;;;;21.77;7.75;;;8.50;99.90;;;;;;4992194;28;20042;-62
2022/04/15 02:16:36;;;;;;;16.55;7.55;;;8.50;99.90;;;;;;4990516;28;20322;-61
2022/04/15 02:19:02;;;;;;;16.67;7.47;;;8.50;99.90;;;;;;4980715;28;20386;-59
2022/04/15 02:21:28;;;;;;;15.90;7.40;;;8.50;99.90;;;;;;4990120;28;20077;-63
2022/04/15 02:23:54;;;;;;;15.38;8.30;;;8.50;99.90;;;;;;4988309;28;20066;-62
2022/04/15 02:26:19;;;;;;;18.85;7.72;;;8.60;99.90;;;;;;4989706;28;20424;-62
2022/04/15 02:28:45;;;;;;;13.65;7.55;;;8.50;99.90;;;;;;4990126;28;20046;-59
2022/04/15 02:31:11;;;;;;;16.85;7.80;;;8.50;99.90;;;;;;4988503;28;20060;-63
2022/04/15 02:33:37;;;;;;;18.92;8.52;;;8.40;99.90;;;;;;4990519;28;20058;-62
2022/04/15 02:36:03;;;;;;;18.25;9.40;;;8.50;99.90;;;;;;4989329;28;20045;-63
2022/04/15 02:38:29;;;;;;;17.70;10.45;;;8.50;99.90;;;;;;4988295;28;20404;-59
2022/04/15 02:40:55;;;;;;;23.70;12.38;;;8.50;99.90;;;;;;4979163;28;20049;-58
2022/04/15 02:43:25;;;;;;;24.27;14.95;;;8.40;99.90;;;;;;4988559;28;20130;-63
2022/04/15 02:45:51;;;;;;;22.20;14.30;;;8.40;99.90;;;;;;4977353;28;20104;-62
2022/04/15 02:48:18;;;;;;;24.73;15.23;;;8.40;99.90;;;;;;4991381;28;20404;-57
2022/04/15 02:50:45;;;;;;;22.38;15.05;;;8.40;99.90;;;;;;4987406;28;20524;-57
2022/04/15 02:53:11;;;;;;;17.95;14.15;;;8.40;99.90;;;;;;4990422;28;20120;-62
2022/04/15 02:55:37;;;;;;;20.77;14.05;;;8.30;99.90;;;;;;4991265;28;20054;-63
2022/04/15 02:58:03;;;;;;;22.08;14.20;;;8.30;99.90;;;;;;4989938;28;20050;-61
2022/04/15 03:00:29;;;;;;;17.25;12.50;;;8.30;99.90;;;;;;4972070;28;20103;-60
2022/04/15 03:02:54;;;;;;;21.25;12.60;;;8.30;99.90;;;;;;4990129;28;20050;-61
2022/04/15 03:05:20;;;;;;;16.55;11.90;;;8.30;99.90;;;;;;4989739;28;20439;-58
2022/04/15 03:07:46;;;;;;;17.05;10.65;;;8.30;99.90;;;;;;4990825;28;20096;-63
2022/04/15 03:10:12;;;;;;;11.43;9.32;;;8.20;99.90;;;;;;4990747;28;20126;-57
2022/04/15 03:12:39;;;;;;;11.60;8.98;;;8.20;99.90;;;;;;4987400;28;20041;-60
2022/04/15 03:15:06;;;;;;;9.38;8.25;;;8.20;99.90;;;;;;4990410;28;20042;-62
2022/04/15 03:17:34;;;;;;;11.15;7.25;;;8.10;99.90;;;;;;4990500;28;20211;-60
2022/04/15 03:20:03;;;;;;;8.85;6.85;;;8.10;99.90;;;;;;4987645;28;20096;-62
2022/04/15 03:22:39;;;;;;;8.27;6.88;;;8.10;99.90;;;;;;4989549;28;20041;-61
2022/04/15 03:25:06;;;;;;;10.43;6.72;;;8.00;99.90;;;;;;4987774;28;20046;-62
2022/04/15 03:27:32;;;;;;;8.70;6.45;;;8.00;99.90;;;;;;4971504;28;20050;-59
2022/04/15 03:29:58;;;;;;;7.88;6.47;;;7.90;99.90;;;;;;4989051;28;20077;-61
2022/04/15 03:32:25;;;;;;;7.35;6.65;;;7.90;99.90;;;;;;4982911;28;20049;-62
2022/04/15 03:34:55;;;;;;;6.43;5.15;;;7.80;99.90;;;;;;4990122;28;20134;-60
2022/04/15 03:37:21;;;;;;;7.38;5.15;;;7.70;99.90;;;;;;4989610;28;20081;-62
2022/04/15 03:39:47;;;;;;;8.45;5.10;;;7.70;99.90;;;;;;4987940;28;20210;-61
2022/04/15 03:42:14;;;;;;;6.13;5.10;;;7.60;99.90;;;;;;4988191;28;20045;-59
2022/04/15 03:44:39;;;;;;;9.00;5.45;;;7.60;99.90;;;;;;4990252;28;20514;-62
2022/04/15 03:47:06;;;;;;;7.30;6.05;;;7.70;99.90;;;;;;4984886;28;20043;-63
2022/04/15 03:49:33;;;;;;;7.57;5.53;;;7.70;99.90;;;;;;4977656;28;20042;-63
2022/04/15 03:51:59;;;;;;;8.05;6.00;;;7.70;99.90;;;;;;4984098;28;20057;-60
2022/04/15 03:54:25;;;;;;;13.48;6.63;;;7.60;99.90;;;;;;4987348;28;20054;-62
2022/04/15 03:56:51;;;;;;;11.38;6.95;;;7.70;99.90;;;;;;4988054;28;20064;-58
2022/04/15 03:59:17;;;;;;;9.60;6.18;;;7.70;99.90;;;;;;4962044;28;20089;-62
2022/04/15 04:01:43;;;;;;;10.77;5.43;;;7.70;99.90;;;;;;4986809;28;20046;-60
2022/04/15 04:04:09;;;;;;;8.80;6.00;;;7.70;99.90;;;;;;4990342;28;20049;-62
2022/04/15 04:06:35;;;;;;;8.05;5.50;;;7.70;99.90;;;;;;4984753;28;20038;-61
2022/04/15 04:09:01;;;;;;;6.00;5.35;;;7.70;99.90;;;;;;4988091;28;20120;-62
2022/04/15 04:11:27;;;;;;;6.78;5.10;;;7.70;99.90;;;;;;4987756;28;20131;-62
2022/04/15 04:13:53;;;;;;;6.82;4.40;;;7.70;99.90;;;;;;4988120;28;20132;-57
2022/04/15 04:16:19;;;;;;;5.22;4.30;;;7.70;99.90;;;;;;4986767;28;20042;-63
2022/04/15 04:18:45;;;;;;;5.20;4.13;;;7.60;99.90;;;;;;4970765;28;20046;-61
2022/04/15 04:21:11;;;;;;;5.80;4.85;;;7.60;99.90;;;;;;4985325;28;20504;-59
2022/04/15 04:23:38;;;;;;;5.63;4.50;;;7.60;99.90;;;;;;4988910;28;20058;-62
2022/04/15 04:26:04;;;;;;;5.82;4.45;;;7.50;99.90;;;;;;4968388;28;20053;-60
2022/04/15 04:28:31;;;;;;;6.88;4.45;;;7.60;99.90;;;;;;4968006;28;20123;-61
2022/04/15 04:30:57;;;;;;;6.18;4.55;;;7.60;99.90;;;;;;4987879;28;20613;-61
2022/04/15 04:33:24;;;;;;;5.60;4.85;;;7.50;99.90;;;;;;4990776;28;20081;-60
2022/04/15 04:35:50;;;;;;;5.88;4.65;;;7.60;99.90;;;;;;4987957;28;20474;-59
2022/04/15 04:38:17;;;;;;;8.85;4.85;;;7.50;99.90;;;;;;4987831;28;20515;-61
2022/04/15 04:40:43;;;;;;;4.50;3.63;;;7.50;99.90;;;;;;4986775;28;20072;-57
2022/04/15 04:43:10;;;;;;;4.78;3.70;;;7.50;99.90;;;;;;4985246;28;20077;-59
2022/04/15 04:45:36;;;;;;;7.10;4.07;;;7.40;99.90;;;;;;4988134;28;20037;-62
2022/04/15 04:48:04;;;;;;;6.72;4.10;;;7.40;99.90;;;;;;4987734;28;20495;-62
2022/04/15 04:50:31;;;;;;;7.15;4.18;;;7.40;99.90;;;;;;4964270;28;20111;-61
2022/04/15 04:52:58;;;;;;;6.15;4.47;;;7.40;99.90;;;;;;4983975;28;20107;-58
2022/04/15 04:55:23;;;;;;;5.72;4.30;;;7.40;99.90;;;;;;4989084;28;20815;-59
2022/04/15 04:57:49;;;;;;;6.65;4.35;;;7.40;99.90;;;;;;4984001;28;20048;-62
2022/04/15 05:00:17;;;;;;;6.97;4.75;;;7.40;99.90;;;;;;4985935;28;20049;-62
2022/04/15 05:02:44;;;;;;;6.53;4.88;;;7.40;99.90;;;;;;4985810;28;20046;-58
2022/04/15 05:05:10;;;;;;;6.50;4.78;;;7.40;99.90;;;;;;4988861;28;20038;-59
2022/04/15 05:07:36;;;;;;;5.95;4.53;;;7.40;99.90;;;;;;4990106;28;20038;-59
2022/04/15 05:10:05;;;;;;;5.82;4.70;;;7.40;99.90;;;;;;4989015;28;20042;-62
2022/04/15 05:12:31;;;;;;;8.38;4.78;;;7.40;99.90;;;;;;4986842;28;20508;-61
2022/04/15 05:14:57;;;;;;;6.10;4.82;;;7.40;99.90;;;;;;4967818;28;20089;-60
2022/04/15 05:17:23;;;;;;;10.40;5.20;;;7.40;99.90;;;;;;4982511;28;20058;-56
2022/04/15 05:19:49;;;;;;;7.78;5.25;;;7.40;99.90;;;;;;4989503;28;20650;-57
2022/04/15 05:22:15;;;;;;;8.18;5.20;;;7.40;99.90;;;;;;4985482;28;20053;-62
2022/04/15 05:24:41;;;;;;;8.05;5.53;;;7.40;99.90;;;;;;4986151;28;20664;-61
2022/04/15 05:27:07;;;;;;;9.30;5.55;;;7.40;99.90;;;;;;4986466;28;20057;-59
2022/04/15 05:29:34;;;;;;;6.20;5.10;;;7.40;99.90;;;;;;4985618;28;20045;-62
2022/04/15 05:32:00;;;;;;;7.78;5.95;;;7.40;99.90;;;;;;4986990;28;20049;-60
2022/04/15 05:34:26;;;;;;;7.43;6.13;;;7.40;99.90;;;;;;4985363;28;20121;-59
2022/04/15 05:36:52;;;;;;;10.50;7.07;;;7.40;99.90;;;;;;4987165;28;20073;-62
2022/04/15 05:39:17;;;;;;;8.60;6.40;;;7.50;99.90;;;;;;4988864;28;20050;-60
2022/04/15 05:41:43;;;;;;;8.15;6.07;;;7.50;99.90;;;;;;4976095;28;20052;-59
2022/04/15 05:44:12;;;;;;;9.23;6.35;;;7.50;99.90;;;;;;4987002;28;20148;-62
2022/04/15 05:46:38;;;;;;;11.75;7.13;;;7.40;99.90;;;;;;4985917;28;20157;-61
2022/04/15 05:49:06;;;;;;;6.82;6.13;;;7.50;99.90;;;;;;4987078;28;20595;-62
2022/04/15 05:51:32;;;;;;;10.82;6.82;;;7.50;99.90;;;;;;4986035;28;20049;-62
2022/04/15 05:53:58;;;;;;;9.82;7.45;;;7.50;99.90;;;;;;4987061;28;20465;-62
2022/04/15 05:56:24;;;;;;;11.38;7.30;;;7.50;99.90;;;;;;4988049;28;20443;-62
2022/04/15 05:58:50;;;;;;;13.32;7.35;;;7.50;99.90;;;;;;4986715;28;20073;-61
2022/04/15 06:01:17;;;;;;;8.68;7.75;;;7.60;99.90;;;;;;4986935;28;20137;-59
2022/04/15 06:03:42;;;;;;;11.68;7.93;;;7.60;99.90;;;;;;4984946;28;20034;-57
2022/04/15 06:06:08;;;;;;;10.60;8.00;;;7.60;99.90;;;;;;4988374;28;20053;-62
2022/04/15 06:08:34;;;;;;;10.52;8.40;;;7.60;99.90;;;;;;4986092;28;20149;-61
2022/04/15 06:11:00;;;;;;;15.15;8.63;;;7.60;99.90;;;;;;4970410;28;20181;-60
2022/04/15 06:13:26;;;;;;;13.13;9.35;;;7.60;99.90;;;;;;4987063;28;20061;-61
2022/04/15 06:15:55;;;;;;;11.93;9.25;;;7.70;99.90;;;;;;4986259;28;20058;-59
2022/04/15 06:18:22;;;;;;;14.13;10.32;;;7.60;99.90;;;;;;4989797;28;20571;-62
2022/04/15 06:20:51;;;;;;;14.65;10.77;;;7.70;99.90;;;;;;4989826;28;20563;-62
2022/04/15 06:23:18;;;;;;;15.98;10.45;;;7.70;99.90;;;;;;4990922;28;20046;-62
2022/04/15 06:25:45;;;;;;;14.40;10.15;;;7.70;99.90;;;;;;4987224;28;20096;-60
2022/04/15 06:28:12;;;;;;;17.95;11.20;;;7.70;99.90;;;;;;4992183;28;20784;-63
2022/04/15 06:30:38;;;;;;;19.27;11.45;;;7.70;99.90;;;;;;4991392;28;20133;-61
2022/04/15 06:33:08;;;;;;;22.00;12.25;;;7.80;99.90;;;;;;4990770;28;20685;-60
2022/04/15 06:35:36;;;;;;;21.73;12.52;;;7.80;99.90;;;;;;4986710;28;20053;-62
2022/04/15 06:38:02;;;;;;;17.13;12.07;;;7.80;99.90;;;;;;4989730;28;20088;-59
2022/04/15 06:40:28;;;;;;;18.48;11.88;;;7.90;99.90;;;;;;4955913;28;20149;-56
2022/04/15 06:42:54;;;;;;;20.58;12.18;;;7.90;99.90;;;;;;4969424;28;20151;-62
2022/04/15 06:45:20;;;;;;;22.55;12.93;;;8.00;99.90;;;;;;4962784;28;20136;-57
2022/04/15 06:47:45;;;;;;;23.25;13.82;;;8.10;99.90;;;;;;4991546;28;20045;-62
2022/04/15 06:50:11;;;;;;;20.83;13.55;;;8.00;99.90;;;;;;4976339;28;20500;-59
2022/04/15 06:52:37;;;;;;;20.35;12.18;;;8.10;99.90;;;;;;4993268;28;20049;-62
2022/04/15 06:55:04;;;;;;;21.48;12.32;;;8.10;99.90;;;;;;4992487;28;20066;-61
2022/04/15 06:57:31;;;;;;;22.30;11.65;;;8.10;99.90;;;;;;4992442;28;20050;-61
2022/04/15 06:59:58;;;;;;;19.48;11.30;;;8.10;99.90;;;;;;4993296;28;20149;-62
2022/04/15 07:02:25;;;;;;;18.42;11.65;;;8.20;99.90;;;;;;4992652;28;20046;-60
2022/04/15 07:04:52;;;;;;;23.90;11.55;;;8.20;99.90;;;;;;4971097;28;20104;-62
2022/04/15 07:07:17;;;;;;;17.73;11.40;;;8.20;99.90;;;;;;4991315;28;20085;-59
2022/04/15 07:09:44;;;;;;;21.05;11.02;;;8.20;99.90;;;;;;4989035;28;20042;-59
2022/04/15 07:12:10;;;;;;;21.58;11.55;;;8.30;99.90;;;;;;4982539;28;20156;-60
2022/04/15 07:14:37;;;;;;;18.90;10.90;;;8.40;99.90;;;;;;4973286;28;20575;-62
2022/04/15 07:17:03;;;;;;;18.55;10.23;;;8.50;99.90;;;;;;4980863;28;21985;-62
2022/04/15 07:19:29;;;;;;;16.08;10.02;;;8.60;99.90;;;;;;4981520;28;20148;-62
2022/04/15 07:21:54;;;;;;;17.02;9.98;;;8.70;99.90;;;;;;4953538;28;23516;-56
2022/04/15 07:24:21;;;;;;;16.40;8.43;;;8.80;99.90;;;;;;4977573;28;20057;-57
2022/04/15 07:26:47;;;;;;;15.57;8.82;;;8.80;99.90;;;;;;4979997;28;20042;-59
2022/04/15 07:29:13;;;;;;;15.23;8.68;;;8.90;99.90;;;;;;4977650;28;20517;-61
2022/04/15 07:31:40;;;;;;;24.60;9.05;;;9.00;99.90;;;;;;4977243;28;20057;-59
2022/04/15 07:34:06;;;;;;;18.13;8.32;;;9.00;99.90;;;;;;4977499;28;20058;-61
2022/04/15 07:39:06;;;;;;;18.58;8.40;;;9.10;99.90;;;;;;4982972;28;20057;-60
2022/04/15 07:41:38;;;;;;;13.57;7.55;;;9.10;99.90;;;;;;4982393;28;20183;-61
2022/04/15 07:44:05;;;;;;;14.32;7.57;;;9.10;99.90;;;;;;4968334;28;20042;-58
2022/04/15 07:46:31;;;;;;;13.77;6.90;;;9.10;99.90;;;;;;4986339;28;20042;-62
2022/04/15 07:48:56;;;;;;;17.20;7.22;;;9.20;99.90;;;;;;4984143;28;20049;-61
2022/04/15 07:51:22;;;;;;;12.13;7.10;;;9.10;99.90;;;;;;4976297;28;20421;-57
2022/04/15 07:53:48;;;;;;;14.13;7.28;;;9.20;99.90;;;;;;4977284;28;20046;-62
2022/04/15 07:56:14;;;;;;;15.02;7.22;;;9.20;99.90;;;;;;4980272;28;20054;-59
2022/04/15 07:58:40;;;;;;;15.10;7.10;;;9.20;99.90;;;;;;4967107;28;20050;-60
2022/04/15 08:01:07;;;;;;;9.57;6.85;;;9.20;99.90;;;;;;4961019;28;20065;-62
2022/04/15 08:03:33;;;;;;;7.90;5.78;;;9.30;99.90;;;;;;4985675;28;20046;-60
2022/04/15 08:05:59;;;;;;;10.48;6.50;;;9.30;99.90;;;;;;4978944;28;20471;-62
2022/04/15 08:08:25;;;;;;;12.50;6.32;;;9.40;99.90;;;;;;4982586;28;20111;-60
2022/04/15 08:10:51;;;;;;;12.55;6.68;;;9.40;99.90;;;;;;4982040;28;20156;-61
2022/04/15 08:13:17;;;;;;;9.27;6.57;;;9.50;99.90;;;;;;4968674;28;20049;-58
2022/04/15 08:15:44;;;;;;;13.90;7.43;;;9.50;99.90;;;;;;4982208;28;20053;-58
2022/04/15 08:18:09;;;;;;;16.23;7.40;;;9.50;99.90;;;;;;4979652;28;20046;-61
2022/04/15 08:20:35;;;;;;;12.27;7.03;;;9.60;99.90;;;;;;4982275;28;20385;-61
2022/04/15 08:23:03;;;;;;;13.15;6.57;;;9.60;99.90;;;;;;4975924;28;20089;-61
2022/04/15 08:25:30;;;;;;;15.23;6.57;;;9.70;99.90;;;;;;4980298;28;20046;-59
2022/04/15 08:27:57;;;;;;;11.52;6.43;;;9.90;99.90;;;;;;4981146;28;20045;-59
2022/04/15 08:30:22;;;;;;;16.00;6.38;;;10.00;99.90;;;;;;4961333;28;20852;-62
2022/04/15 08:32:52;;;;;;;12.07;5.95;;;10.20;99.90;;;;;;4968479;28;20050;-61
2022/04/15 08:35:18;;;;;;;18.13;6.10;;;10.30;99.90;;;;;;4965692;28;21167;-60
2022/04/15 08:37:44;;;;;;;11.68;6.35;;;10.30;99.90;;;;;;4981797;28;20056;-60
2022/04/15 08:40:12;;;;;;;9.27;5.50;;;10.30;99.90;;;;;;4984543;28;20084;-62
2022/04/15 08:42:40;;;;;;;8.73;5.40;;;10.30;99.90;;;;;;4985583;28;20054;-62
2022/04/15 08:45:10;;;;;;;10.38;5.55;;;10.40;99.90;;;;;;4983226;28;20046;-58
2022/04/15 08:47:37;;;;;;;9.85;6.25;;;10.40;99.90;;;;;;4948780;28;20075;-63
2022/04/15 08:50:05;;;;;;;8.15;5.95;;;10.50;99.90;;;;;;4990544;28;20049;-62
2022/04/15 08:52:32;;;;;;;12.15;6.60;;;10.60;99.90;;;;;;4979619;28;20050;-61
2022/04/15 08:55:00;;;;;;;13.73;6.35;;;10.80;99.90;;;;;;4966629;28;20468;-63
2022/04/15 08:57:27;;;;;;;17.50;5.90;;;10.80;99.90;;;;;;4981605;28;20053;-59
2022/04/15 08:59:53;;;;;;;25.45;13.82;;;10.70;99.90;;;;;;4971864;28;20049;-59
2022/04/15 09:02:31;;;;;;;12.20;6.30;;;10.60;99.90;;;;;;4987847;28;20109;-61
2022/04/15 09:04:57;;;;;;;12.45;5.75;;;10.50;99.90;;;;;;4987842;28;20054;-63
2022/04/15 09:07:26;;;;;;;11.60;6.45;;;10.70;99.90;;;;;;4980141;28;20565;-59
2022/04/15 09:09:56;;;;;;;8.48;6.03;;;10.90;99.90;;;;;;4975639;28;20054;-61
2022/04/15 09:12:29;;;;;;;11.38;5.82;;;11.10;99.90;;;;;;4982726;28;20700;-62
2022/04/15 09:15:13;;;;;;;10.85;6.07;;;11.30;99.90;;;;;;4968226;28;20100;-63
2022/04/15 09:17:41;;;;;;;15.15;6.85;;;11.40;99.90;;;;;;4987236;28;20050;-62
2022/04/15 09:20:11;;;;;;;16.70;6.32;;;11.30;99.90;;;;;;4986670;28;20567;-61
2022/04/15 09:22:37;;;;;;;11.88;6.80;;;11.20;99.90;;;;;;4982435;28;20038;-60
2022/04/15 09:25:05;;;;;;;11.65;7.03;;;11.10;99.90;;;;;;4970533;28;20137;-62
2022/04/15 09:27:30;;;;;;;7.30;5.45;;;11.00;99.90;;;;;;4988968;28;20153;-59
2022/04/15 09:29:56;;;;;;;11.25;6.32;;;10.90;99.90;;;;;;4987531;28;20212;-61
2022/04/15 09:32:24;;;;;;;9.00;6.32;;;10.90;99.90;;;;;;4988670;28;20052;-61
2022/04/15 09:35:03;;;;;;;13.80;6.80;;;10.90;99.90;;;;;;4988910;28;20101;-60
2022/04/15 09:37:40;;;;;;;11.80;6.55;;;11.10;99.90;;;;;;4989260;28;20046;-60
2022/04/15 09:40:08;;;;;;;9.30;6.50;;;11.20;99.90;;;;;;4989465;28;20050;-62
2022/04/15 09:42:35;;;;;;;16.85;6.97;;;11.20;99.90;;;;;;4969620;28;20445;-63
2022/04/15 09:45:21;;;;;;;9.95;5.75;;;11.30;99.90;;;;;;4934997;28;20050;-63
2022/04/15 09:47:54;;;;;;;8.05;5.70;;;11.40;99.90;;;;;;4984969;28;20174;-62
2022/04/15 09:50:22;;;;;;;;;;;11.30;99.90;;;;;;4991518;28;20053;-62
2022/04/15 09:52:52;;;;;;;10.55;6.13;;;11.30;99.90;;;;;;4984862;28;20536;-61
2022/04/15 09:55:23;;;;;;;10.23;5.50;;;11.40;99.90;;;;;;4990155;28;20551;-60
2022/04/15 09:57:50;;;;;;;7.70;6.20;;;11.40;99.90;;;;;;4989446;28;20038;-63
2022/04/15 10:00:19;;;;;;;10.25;6.22;;;11.30;99.90;;;;;;4969689;28;20105;-62
2022/04/15 10:02:49;;;;;;;12.27;6.78;;;11.30;99.90;;;;;;4987381;28;20054;-62
2022/04/15 10:05:16;;;;;;;13.20;6.90;;;11.30;99.90;;;;;;4994242;28;20514;-62
2022/04/15 10:07:42;;;;;;;9.77;5.95;;;11.30;99.90;;;;;;4994728;28;20053;-62
2022/04/15 10:10:10;;;;;;;11.32;6.20;;;11.30;99.90;;;;;;4992424;28;20053;-62
2022/04/15 10:12:39;;;;;;;9.77;6.50;;;11.30;99.90;;;;;;4991697;28;20404;-62
2022/04/15 10:15:09;;;;;;;12.25;6.18;;;11.30;99.90;;;;;;4988327;28;20558;-62
2022/04/15 10:17:41;;;;;;;11.55;6.45;;;11.40;99.90;;;;;;4991788;28;20139;-61
2022/04/15 10:20:08;;;;;;;10.13;6.97;;;11.40;99.90;;;;;;4990264;28;20050;-61
2022/04/15 10:22:38;;;;;;;8.55;6.30;;;11.40;99.90;;;;;;4993841;28;20442;-62
2022/04/15 10:25:07;;;;;;;11.85;6.80;;;11.40;99.90;;;;;;4991850;28;20474;-62
2022/04/15 10:27:34;;;;;;;14.85;7.65;;;11.30;99.90;;;;;;4969804;28;20050;-62
2022/04/15 10:30:13;;;;;;;13.57;6.93;;;11.30;99.90;;;;;;4982319;28;20088;-59
2022/04/15 10:32:54;;;;;;;15.88;7.47;;;11.20;99.90;;;;;;4990177;28;20387;-63
2022/04/15 10:35:33;;;;;;;10.02;6.47;;;11.20;99.90;;;;;;4994663;28;20497;-62
2022/04/15 10:38:01;;;;;;;12.25;6.75;;;11.20;99.90;;;;;;4983940;28;20077;-62
2022/04/15 10:40:30;;;;;;;10.52;7.13;;;11.20;99.90;;;;;;4956579;28;20488;-63
2022/04/15 10:43:04;;;;;;;12.25;7.25;;;11.20;99.90;;;;;;4990913;28;20050;-59
2022/04/15 10:45:35;;;;;;;12.38;7.07;;;11.20;99.90;;;;;;4967359;28;20046;-60
2022/04/15 10:48:03;;;;;;;12.10;7.05;;;11.20;99.90;;;;;;4982593;28;20050;-63
2022/04/15 10:50:31;;;;;;;15.57;7.18;;;11.20;99.90;;;;;;4992704;28;20101;-60
2022/04/15 10:53:17;;;;;;;12.45;7.25;;;11.10;99.90;;;;;;4993257;28;20089;-63
2022/04/15 10:55:49;;;;;;;15.15;7.45;;;11.00;99.90;;;;;;4992463;28;20042;-60
2022/04/15 10:58:16;;;;;;;13.27;7.10;;;11.00;99.90;;;;;;4991794;28;20057;-63
2022/04/15 11:03:31;;;;;;;11.15;6.18;;;11.00;99.90;;;;;;4992367;28;20046;-63
2022/04/15 11:06:04;;;;;;;11.85;6.38;;;10.90;99.90;;;;;;4994264;28;20042;-62
2022/04/15 11:08:46;;;;;;;10.00;6.35;;;10.90;99.90;;;;;;4974401;28;20061;-62
2022/04/15 11:11:12;;;;;;;11.75;7.22;;;10.90;99.90;;;;;;4982748;28;20065;-63
2022/04/15 11:13:41;;;;;;;13.18;6.88;;;10.90;99.90;;;;;;4990443;28;20053;-61
2022/04/15 11:16:09;;;;;;;9.68;6.25;;;10.90;99.90;;;;;;4974239;28;20673;-60
2022/04/15 11:18:55;;;;;;;11.65;6.95;;;10.90;99.90;;;;;;4993901;28;20061;-62
2022/04/15 11:21:36;;;;;;;10.63;6.72;;;10.90;99.90;;;;;;4993796;28;20096;-60
2022/04/15 11:24:12;;;;;;;11.77;6.70;;;11.00;99.90;;;;;;4989599;28;20177;-59
2022/04/15 11:26:43;;;;;;;11.07;5.68;;;11.00;99.90;;;;;;4991011;28;20579;-63
2022/04/15 11:29:12;;;;;;;17.10;7.28;;;10.90;99.90;;;;;;4991132;28;20531;-60
2022/04/15 11:31:49;;;;;;;10.10;6.50;;;11.00;99.90;;;;;;4991050;28;20057;-62
2022/04/15 11:34:17;;;;;;;9.68;6.40;;;11.00;99.90;;;;;;4967740;28;20054;-60
2022/04/15 11:36:47;;;;;;;10.07;6.82;;;11.00;99.90;;;;;;4953300;28;20042;-62
2022/04/15 11:39:16;;;;;;;10.60;6.32;;;11.10;99.90;;;;;;4975163;28;20042;-62
2022/04/15 11:41:47;;;;;;;10.85;6.00;;;11.00;99.90;;;;;;4989456;28;20082;-60
2022/04/15 11:44:14;;;;;;;16.05;6.18;;;11.00;99.90;;;;;;4968224;28;20065;-60
2022/04/15 11:46:48;;;;;;;11.93;6.82;;;10.90;99.90;;;;;;4991374;28;20046;-60
2022/04/15 11:49:15;;;;;;;10.13;6.78;;;10.90;99.90;;;;;;4989353;28;20081;-62
2022/04/15 11:51:54;;;;;;;12.23;6.80;;;10.90;99.90;;;;;;4990437;28;20050;-62
2022/04/15 11:54:24;;;;;;;9.90;6.57;;;10.80;99.90;;;;;;4990891;28;20563;-63
2022/04/15 11:56:57;;;;;;;12.10;6.80;;;10.80;99.90;;;;;;4990281;28;20064;-61
2022/04/15 11:59:26;;;;;;;11.65;6.63;;;10.80;99.90;;;;;;4987989;28;20120;-63
2022/04/15 12:01:55;;;;;;;9.85;6.50;;;10.70;99.90;;;;;;4989483;28;20606;-63
2022/04/15 12:04:21;;;;;;;10.85;6.25;;;10.80;99.90;;;;;;4991082;28;20577;-59
2022/04/15 12:06:47;;;;;;;10.60;6.32;;;10.80;99.90;;;;;;4979107;28;20138;-58
2022/04/15 12:09:16;;;;;;;12.15;6.38;;;10.80;99.90;;;;;;4953956;28;20500;-60
2022/04/15 12:11:42;;;;;;;14.38;6.55;;;10.90;99.90;;;;;;4992170;28;20509;-62
2022/04/15 12:14:09;;;;;;;12.23;6.78;;;10.80;99.90;;;;;;4979021;28;20041;-63
2022/04/15 12:16:42;;;;;;;10.60;6.70;;;10.90;99.90;;;;;;4990854;28;20554;-61
2022/04/15 12:19:08;;;;;;;11.82;6.72;;;10.90;99.90;;;;;;4992153;28;20043;-61
2022/04/15 12:21:37;;;;;;;10.90;7.03;;;10.90;99.90;;;;;;4988865;28;20133;-63
2022/04/15 12:24:11;;;;;;;12.38;6.90;;;10.90;99.90;;;;;;4973256;28;20059;-62
2022/04/15 12:26:52;;;;;;;10.40;6.93;;;11.00;99.90;;;;;;4988826;28;20157;-60
2022/04/15 12:32:15;;;;;;;11.13;7.13;;;10.90;99.90;;;;;;4968863;28;20617;-62
2022/04/15 12:34:42;;;;;;;11.65;6.68;;;11.00;99.90;;;;;;4990626;28;20046;-62
2022/04/15 12:37:41;;;;;;;13.60;6.88;;;10.90;99.90;;;;;;4987448;28;20089;-62
2022/04/15 12:40:20;;;;;;;11.80;6.60;;;10.90;99.90;;;;;;4991717;28;20503;-62
2022/04/15 12:42:49;;;;;;;10.48;6.78;;;10.80;99.90;;;;;;4988463;28;20093;-57
2022/04/15 12:45:22;;;;;;;15.80;7.55;;;10.70;99.90;;;;;;4989793;28;20042;-62
2022/04/15 12:48:03;;;;;;;11.82;7.25;;;10.70;99.90;;;;;;4971862;28;20046;-58
2022/04/15 12:50:33;;;;;;;9.80;6.72;;;10.70;99.90;;;;;;4972000;28;20086;-62
2022/04/15 12:53:00;;;;;;;11.88;6.68;;;10.60;99.90;;;;;;4980140;28;20046;-63
2022/04/15 12:55:34;;;;;;;13.57;6.75;;;10.60;99.90;;;;;;4981764;28;20085;-63
2022/04/15 12:58:02;;;;;;;16.13;7.32;;;10.60;99.90;;;;;;4990534;28;20137;-61